Time;durP1;ratioP1;P1;durP2;ratioP2;P2;SDS_P1;SDS_P2;PMS_P1;PMS_P2;Temp;Humidity;BMP_temperature;BMP_pressure;BME280_temperature;BME280_humidity;BME280_pressure;Samples;Min_cycle;Max_cycle;Signal;HPM_P1;HPM_P2
2021/04/18 00:00:57;;;;;;;185.40;67.63;;;;;;;-144.99;61.11;52203.50;5030504;28;20647;-75
2021/04/18 00:03:24;;;;;;;205.00;76.27;;;;;;;-144.99;61.43;52187.19;5024505;28;20655;-75
2021/04/18 00:05:50;;;;;;;199.33;72.37;;;;;;;-144.99;61.62;52215.75;5027707;28;20608;-73
2021/04/18 00:08:16;;;;;;;220.87;79.73;;;;;;;-144.99;61.78;52211.66;5030744;28;20633;-74
2021/04/18 00:10:43;;;;;;;115.70;42.60;;;;;;;-144.99;62.12;52193.31;5025752;28;20675;-73
2021/04/18 00:13:11;;;;;;;205.93;74.67;;;;;;;-144.99;62.38;52203.50;5020800;28;20607;-74
2021/04/18 00:15:39;;;;;;;221.97;80.00;;;;;;;-144.99;62.60;52227.97;5021642;28;21039;-74
2021/04/18 00:18:06;;;;;;;210.87;78.33;;;;;;;-144.99;62.85;52195.34;5014158;28;20639;-74
2021/04/18 00:20:32;;;;;;;219.73;81.07;;;;;;;-144.99;63.60;52213.69;5029323;28;20671;-77
2021/04/18 00:22:59;;;;;;;206.53;75.80;;;;;;;-144.99;63.72;52215.75;5023587;28;20655;-77
2021/04/18 00:25:25;;;;;;;192.10;74.67;;;;;;;-144.99;63.66;52191.28;5030709;28;20634;-74
2021/04/18 00:27:51;;;;;;;192.97;73.97;;;;;;;-144.99;63.98;52232.03;5022689;28;20755;-76
2021/04/18 00:30:20;;;;;;;207.23;78.20;;;;;;;-144.99;64.12;52203.50;5023673;28;20679;-73
2021/04/18 00:32:46;;;;;;;208.23;77.87;;;;;;;-144.99;64.42;52209.63;5032322;28;20630;-75
2021/04/18 00:35:15;;;;;;;207.10;77.67;;;;;;;-144.99;64.43;52207.59;5032797;28;20634;-75
2021/04/18 00:37:42;;;;;;;194.77;74.80;;;;;;;-144.99;64.47;52179.06;5032643;28;20614;-76
2021/04/18 00:40:11;;;;;;;197.23;77.67;;;;;;;-144.99;64.46;52240.19;5021747;28;20670;-75
2021/04/18 00:42:37;;;;;;;196.67;75.80;;;;;;;-144.99;64.48;52217.78;5029569;28;20639;-76
2021/04/18 00:45:05;;;;;;;195.50;75.60;;;;;;;-144.99;64.53;52205.53;5019991;28;20630;-76
2021/04/18 00:47:33;;;;;;;197.60;75.93;;;;;;;-144.99;64.55;52197.41;5016751;28;20935;-74
2021/04/18 00:49:59;;;;;;;211.67;78.73;;;;;;;-144.99;64.49;52183.13;5011598;28;20811;-74
2021/04/18 00:52:26;;;;;;;210.32;78.82;;;;;;;-144.99;64.52;52227.97;5023244;28;20688;-74
2021/04/18 00:54:53;;;;;;;208.20;79.18;;;;;;;-144.99;64.63;52195.34;5021566;28;20278;-76
2021/04/18 00:57:19;;;;;;;200.80;76.50;;;;;;;-144.99;64.84;52227.97;5013606;28;20213;-76
2021/04/18 00:59:45;;;;;;;201.97;78.13;;;;;;;-144.99;65.09;52219.81;5031728;28;20639;-75
2021/04/18 01:02:12;;;;;;;209.23;79.47;;;;;;;-144.99;65.10;52248.34;5031243;28;20631;-74
2021/04/18 01:04:38;;;;;;;212.27;79.07;;;;;;;-144.99;65.18;52187.19;5017565;28;21032;-75
2021/04/18 01:07:05;;;;;;;217.73;81.05;;;;;;;-144.99;65.43;52215.75;5030461;28;20705;-76
2021/04/18 01:09:32;;;;;;;214.30;80.55;;;;;;;-144.99;65.64;52219.81;5034262;28;20204;-73
2021/04/18 01:11:59;;;;;;;215.45;80.07;;;;;;;-144.99;65.71;52205.53;5020139;28;20219;-75
2021/04/18 01:14:25;;;;;;;200.63;78.30;;;;;;;-144.99;65.95;52199.44;5028354;28;20208;-74
2021/04/18 01:16:51;;;;;;;215.27;79.53;;;;;;;-144.99;66.02;52187.19;5017679;28;20623;-74
2021/04/18 01:19:18;;;;;;;209.48;78.90;;;;;;;-144.99;66.04;52187.19;5034463;28;20623;-75
2021/04/18 01:21:45;;;;;;;205.53;78.27;;;;;;;-144.99;66.05;52193.31;5023518;28;20221;-76
2021/04/18 01:24:11;;;;;;;209.53;78.83;;;;;;;-144.99;66.05;52221.84;5033552;28;20627;-75
2021/04/18 01:26:37;;;;;;;211.15;79.32;;;;;;;-144.99;66.13;52207.59;5025304;28;20670;-76
2021/04/18 01:29:05;;;;;;;205.35;78.03;;;;;;;-144.99;66.24;52227.97;5030275;28;20746;-76
2021/04/18 01:31:31;;;;;;;214.10;80.32;;;;;;;-144.99;66.30;52248.34;5032419;28;20231;-75
2021/04/18 01:33:57;;;;;;;216.82;80.82;;;;;;;-144.99;66.48;52187.19;5033768;28;20204;-75
2021/04/18 01:36:24;;;;;;;206.57;79.80;;;;;;;-144.99;66.76;52207.59;5027090;28;20286;-77
2021/04/18 01:38:51;;;;;;;198.20;78.23;;;;;;;-144.99;66.64;52203.50;5029720;28;20642;-75
2021/04/18 01:41:18;;;;;;;200.70;77.87;;;;;;;-144.99;66.82;52215.75;5024448;28;20691;-74
2021/04/18 01:43:45;;;;;;;196.77;76.77;;;;;;;-144.99;66.93;52183.13;5038477;28;21018;-76
2021/04/18 01:46:12;;;;;;;194.50;76.60;;;;;;;-144.99;67.05;52191.28;5017018;28;20734;-76
2021/04/18 01:48:38;;;;;;;200.97;77.13;;;;;;;-144.99;67.14;52166.81;5019829;28;20753;-75
2021/04/18 01:51:06;;;;;;;213.10;80.40;;;;;;;-144.99;67.20;52187.19;5021912;28;20674;-75
2021/04/18 01:53:33;;;;;;;207.98;79.85;;;;;;;-144.99;67.29;52197.41;5023070;28;20611;-74
2021/04/18 01:56:00;;;;;;;199.27;78.13;;;;;;;-144.99;67.28;52207.59;5025195;28;20250;-76
2021/04/18 01:58:26;;;;;;;208.40;79.60;;;;;;;-144.99;67.66;52203.50;5032421;28;20637;-74
2021/04/18 02:00:53;;;;;;;193.23;76.20;;;;;;;-144.99;67.66;52217.78;5025836;28;20658;-74
2021/04/18 02:03:19;;;;;;;202.07;78.20;;;;;;;-144.99;67.68;52219.81;5025321;28;20710;-73
2021/04/18 02:05:45;;;;;;;189.57;76.00;;;;;;;-144.99;67.89;52195.34;5023162;28;21168;-73
2021/04/18 02:08:12;;;;;;;197.80;77.70;;;;;;;-144.99;67.80;52209.63;5034258;28;20697;-73
2021/04/18 02:10:38;;;;;;;199.43;77.73;;;;;;;-144.99;67.95;52215.75;5021170;28;21285;-71
2021/04/18 02:13:05;;;;;;;197.73;78.20;;;;;;;-144.99;67.96;52211.66;5015779;28;20627;-74
2021/04/18 02:15:31;;;;;;;197.63;78.20;;;;;;;-144.99;67.93;52191.28;5020536;28;20689;-74
2021/04/18 02:17:57;;;;;;;201.07;77.97;;;;;;;-144.99;67.89;52193.31;5020492;28;20691;-72
2021/04/18 02:20:24;;;;;;;199.63;78.37;;;;;;;-144.99;68.02;52187.19;5020998;28;20227;-74
2021/04/18 02:22:50;;;;;;;188.03;75.13;;;;;;;-144.99;68.15;52211.66;5024154;28;20622;-73
2021/04/18 02:25:16;;;;;;;188.13;75.93;;;;;;;-144.99;68.21;52211.66;5032310;28;21302;-75
2021/04/18 02:27:42;;;;;;;185.00;75.43;;;;;;;-144.99;68.07;52213.69;5023911;28;20633;-73
2021/04/18 02:30:11;;;;;;;178.60;72.37;;;;;;;-144.99;68.12;52230.00;5011875;28;20675;-75
2021/04/18 02:32:37;;;;;;;189.13;76.00;;;;;;;-144.99;68.25;52174.97;5011926;28;20622;-73
2021/04/18 02:35:05;;;;;;;186.73;75.50;;;;;;;-144.99;68.34;52240.19;5012069;28;20702;-74
2021/04/18 02:37:31;;;;;;;196.87;77.43;;;;;;;-144.99;68.52;52219.81;5011946;28;20687;-74
2021/04/18 02:39:57;;;;;;;201.50;77.97;;;;;;;-144.99;68.71;52248.34;5020434;28;20694;-73
2021/04/18 02:42:23;;;;;;;211.18;80.35;;;;;;;-144.99;68.93;52211.66;5030187;28;20197;-74
2021/04/18 02:44:49;;;;;;;211.77;80.68;;;;;;;-144.99;69.20;52211.66;5017895;28;20213;-73
2021/04/18 02:47:17;;;;;;;206.52;78.93;;;;;;;-144.99;69.32;52232.03;5013919;28;20205;-74
2021/04/18 02:49:43;;;;;;;187.85;75.63;;;;;;;-144.99;69.41;52199.44;5014124;28;20209;-74
2021/04/18 02:52:09;;;;;;;192.82;75.97;;;;;;;-144.99;69.68;52199.44;5018606;28;20204;-74
2021/04/18 02:54:35;;;;;;;196.25;77.25;;;;;;;-144.99;69.72;52215.75;5023408;28;20216;-74
2021/04/18 02:57:02;;;;;;;193.93;75.28;;;;;;;-144.99;70.16;52191.28;5012716;28;20671;-72
2021/04/18 02:59:28;;;;;;;206.65;78.82;;;;;;;-144.99;70.12;52191.28;5011575;28;20205;-71
2021/04/18 03:01:54;;;;;;;201.68;78.47;;;;;;;-144.99;70.15;52238.16;5010946;28;20610;-74
2021/04/18 03:04:21;;;;;;;202.20;78.32;;;;;;;-144.99;70.35;52219.81;5014898;28;20244;-74
2021/04/18 03:06:47;;;;;;;203.65;78.05;;;;;;;-144.99;70.53;52232.03;5018389;28;20205;-71
2021/04/18 03:09:13;;;;;;;191.38;74.88;;;;;;;-144.99;70.75;52174.97;5031080;28;20216;-74
2021/04/18 03:11:39;;;;;;;185.52;73.38;;;;;;;-144.99;70.74;52215.75;5018399;28;20280;-74
2021/04/18 03:14:05;;;;;;;200.55;77.70;;;;;;;-144.99;70.97;52219.81;5024041;28;20205;-72
2021/04/18 03:16:31;;;;;;;204.55;79.03;;;;;;;-144.99;71.19;52227.97;5013848;28;20205;-73
2021/04/18 03:18:57;;;;;;;200.18;77.43;;;;;;;-144.99;71.76;52225.94;5028326;28;20204;-72
2021/04/18 03:21:24;;;;;;;195.85;76.50;;;;;;;-144.99;72.02;52195.34;5017720;28;20228;-74
2021/04/18 03:23:51;;;;;;;198.82;77.90;;;;;;;-144.99;72.09;52211.66;5012042;28;20275;-73
2021/04/18 03:26:17;;;;;;;199.10;77.35;;;;;;;-144.99;72.17;52236.13;5011360;28;20209;-72
2021/04/18 03:28:43;;;;;;;207.15;79.18;;;;;;;-144.99;72.19;52215.75;5011776;28;20205;-74
2021/04/18 03:31:09;;;;;;;203.57;78.35;;;;;;;-144.99;72.34;52223.88;5019296;28;20625;-73
2021/04/18 03:33:35;;;;;;;206.82;78.60;;;;;;;-144.99;72.51;52191.28;5011619;28;20205;-74
2021/04/18 03:36:02;;;;;;;197.38;76.57;;;;;;;-144.99;72.41;52223.88;5011527;28;20200;-73
2021/04/18 03:38:29;;;;;;;190.88;75.05;;;;;;;-144.99;72.69;52264.66;5032227;28;20212;-74
2021/04/18 03:40:55;;;;;;;189.80;74.90;;;;;;;-144.99;72.76;52187.19;5022720;28;20235;-75
2021/04/18 03:43:21;;;;;;;175.88;70.28;;;;;;;-144.99;72.72;52211.66;5024582;28;20213;-72
2021/04/18 03:45:47;;;;;;;182.02;72.47;;;;;;;-144.99;72.96;52211.66;5013749;28;20217;-73
2021/04/18 03:48:13;;;;;;;183.60;72.75;;;;;;;-144.99;73.07;52195.34;5014274;28;20198;-72
2021/04/18 03:50:40;;;;;;;183.63;72.95;;;;;;;-144.99;73.15;52215.75;5020073;28;20234;-73
2021/04/18 03:53:06;;;;;;;184.35;72.88;;;;;;;-144.99;73.20;52240.19;5011359;28;20289;-73
2021/04/18 03:55:33;;;;;;;179.07;71.18;;;;;;;-144.99;73.22;52215.75;5024158;28;20727;-75
2021/04/18 03:57:59;;;;;;;182.07;71.82;;;;;;;-144.99;73.38;52213.69;5027591;28;20202;-73
2021/04/18 04:00:26;;;;;;;184.88;73.05;;;;;;;-144.99;73.44;52240.19;5021002;28;20221;-72
2021/04/18 04:02:52;;;;;;;185.85;73.07;;;;;;;-144.99;73.51;52227.97;5034100;28;20209;-73
2021/04/18 04:05:18;;;;;;;186.95;73.75;;;;;;;-144.99;73.50;52213.69;5032245;28;20225;-75
2021/04/18 04:07:44;;;;;;;186.80;72.82;;;;;;;-144.99;73.60;52215.75;5022630;28;20672;-73
2021/04/18 04:10:11;;;;;;;190.57;74.90;;;;;;;-144.99;73.79;52236.13;5021840;28;20662;-72
2021/04/18 04:12:38;;;;;;;182.98;71.88;;;;;;;-144.99;73.75;52232.03;5021075;28;20217;-72
2021/04/18 04:15:06;;;;;;;193.18;75.65;;;;;;;-144.99;74.00;52203.50;5019286;28;20206;-73
2021/04/18 04:17:32;;;;;;;187.45;74.15;;;;;;;-144.99;73.84;52236.13;5020116;28;20657;-73
2021/04/18 04:19:58;;;;;;;190.85;74.93;;;;;;;-144.99;74.05;52211.66;5013745;28;20228;-74
2021/04/18 04:22:24;;;;;;;187.82;73.15;;;;;;;-144.99;73.93;52260.56;5022032;28;20209;-74
2021/04/18 04:24:53;;;;;;;191.57;74.32;;;;;;;-144.99;73.91;52236.13;5037839;28;20213;-73
2021/04/18 04:27:19;;;;;;;191.45;75.68;;;;;;;-144.99;73.86;52232.03;5028782;28;20205;-71
2021/04/18 04:29:46;;;;;;;190.55;74.30;;;;;;;-144.99;73.76;52215.75;5018953;28;20280;-73
2021/04/18 04:32:13;;;;;;;190.88;74.68;;;;;;;-144.99;73.71;52223.88;5029743;28;20214;-71
2021/04/18 04:34:40;;;;;;;190.05;74.00;;;;;;;-144.99;73.82;52219.81;5031239;28;20738;-72
2021/04/18 04:37:06;;;;;;;188.95;72.93;;;;;;;-144.99;73.61;52219.81;5030043;28;20209;-74
2021/04/18 04:39:32;;;;;;;196.32;76.03;;;;;;;-144.99;73.52;52211.66;5019541;28;20197;-73
2021/04/18 04:42:00;;;;;;;197.32;76.85;;;;;;;-144.99;73.55;52219.81;5026331;28;20250;-73
2021/04/18 04:44:27;;;;;;;200.52;77.60;;;;;;;-144.99;73.64;52199.44;5019518;28;20208;-72
2021/04/18 04:46:53;;;;;;;191.63;74.13;;;;;;;-144.99;73.30;52195.34;5020916;28;20265;-74
2021/04/18 04:49:21;;;;;;;196.30;76.13;;;;;;;-144.99;73.39;52187.19;5028288;28;20424;-74
2021/04/18 04:51:47;;;;;;;199.05;77.32;;;;;;;-144.99;73.15;52209.63;5024858;28;20233;-73
2021/04/18 04:54:13;;;;;;;196.70;76.60;;;;;;;-144.99;72.97;52223.88;5021130;28;20576;-72
2021/04/18 04:56:40;;;;;;;195.75;75.70;;;;;;;-144.99;72.90;52195.34;5015081;28;20205;-73
2021/04/18 04:59:06;;;;;;;198.48;77.13;;;;;;;-144.99;72.79;52199.44;5018226;28;20201;-72
2021/04/18 05:01:32;;;;;;;198.77;77.13;;;;;;;-144.99;72.72;52230.00;5021658;28;20236;-73
2021/04/18 05:03:59;;;;;;;199.18;77.32;;;;;;;-144.99;72.51;52187.19;5031401;28;20205;-74
2021/04/18 05:06:25;;;;;;;187.95;74.15;;;;;;;-144.99;72.45;52250.38;5029832;28;20233;-73
2021/04/18 05:08:51;;;;;;;187.25;73.55;;;;;;;-144.99;72.18;52223.88;5018017;28;20676;-75
2021/04/18 05:11:17;;;;;;;178.23;69.78;;;;;;;-144.99;72.13;52191.28;5017171;28;20275;-74
2021/04/18 05:13:43;;;;;;;182.77;72.10;;;;;;;-144.99;71.88;52181.09;5032676;28;20236;-74
2021/04/18 05:16:09;;;;;;;181.80;71.87;;;;;;;-144.99;71.59;52219.81;5026263;28;20201;-73
2021/04/18 05:18:35;;;;;;;185.13;73.07;;;;;;;-144.99;71.26;52232.03;5030530;28;20662;-73
2021/04/18 05:21:03;;;;;;;177.60;70.47;;;;;;;-144.99;71.01;52203.50;5027904;28;20230;-73
2021/04/18 05:23:29;;;;;;;180.43;71.93;;;;;;;-144.99;70.73;52195.34;5012942;28;20636;-74
2021/04/18 05:25:55;;;;;;;179.13;70.97;;;;;;;-144.99;70.45;52211.66;5022102;28;20624;-73
2021/04/18 05:28:22;;;;;;;179.52;72.03;;;;;;;-144.99;70.12;52211.66;5030331;28;21177;-73
2021/04/18 05:30:48;;;;;;;180.83;72.47;;;;;;;-144.99;70.09;52236.13;5031193;28;20232;-74
2021/04/18 05:33:14;;;;;;;181.17;73.37;;;;;;;-144.99;69.82;52166.81;5020228;28;20637;-75
2021/04/18 05:35:40;;;;;;;177.40;71.90;;;;;;;-144.99;69.57;52236.13;5022482;28;20624;-74
2021/04/18 05:38:07;;;;;;;181.77;73.27;;;;;;;-144.99;69.25;52174.97;5010610;28;20625;-74
2021/04/18 05:40:34;;;;;;;181.30;73.07;;;;;;;-144.99;69.09;52174.97;5020854;28;21323;-74
2021/04/18 05:43:00;;;;;;;181.27;73.13;;;;;;;-144.99;68.64;52211.66;5031350;28;20316;-73
2021/04/18 05:45:26;;;;;;;183.07;74.37;;;;;;;-144.99;68.42;52183.13;5020667;28;20217;-71
2021/04/18 05:47:52;;;;;;;180.03;73.30;;;;;;;-144.99;68.09;52187.19;5013167;28;20655;-71
2021/04/18 05:50:18;;;;;;;178.70;73.90;;;;;;;-144.99;67.68;52193.31;5011524;28;21308;-72
2021/04/18 05:52:53;;;;;;;175.03;72.53;;;;;;;-144.99;67.27;52240.19;5019548;28;21165;-71
2021/04/18 05:55:20;;;;;;;178.40;74.10;;;;;;;-144.99;67.07;52170.91;5028440;28;20890;-73
2021/04/18 05:57:47;;;;;;;178.93;73.50;;;;;;;-144.99;66.98;52215.75;5023980;28;20635;-72
2021/04/18 06:00:14;;;;;;;177.00;73.13;;;;;;;-144.99;66.64;52134.22;5018444;28;21362;-73
2021/04/18 06:02:40;;;;;;;179.03;73.73;;;;;;;-144.99;66.05;52183.13;5014448;28;20690;-74
2021/04/18 06:05:08;;;;;;;180.47;74.77;;;;;;;-144.99;65.40;52191.28;5026943;28;20662;-73
2021/04/18 06:07:34;;;;;;;177.17;73.70;;;;;;;-144.99;64.93;52203.50;5032252;28;21019;-73
2021/04/18 06:10:00;;;;;;;178.90;74.00;;;;;;;-144.99;64.67;52199.44;5017330;28;20719;-73
2021/04/18 06:12:27;;;;;;;178.60;74.57;;;;;;;-144.99;64.41;52187.19;5026292;28;21220;-74
2021/04/18 06:14:53;;;;;;;178.43;73.97;;;;;;;-144.99;63.49;52174.97;5022159;28;20637;-74
2021/04/18 06:17:19;;;;;;;178.37;74.53;;;;;;;-144.99;63.07;52170.91;5021268;28;20682;-75
2021/04/18 06:19:46;;;;;;;175.63;74.07;;;;;;;-144.99;62.97;52142.38;5032586;28;20624;-76
2021/04/18 06:22:12;;;;;;;176.00;74.07;;;;;;;-144.99;62.59;52191.28;5026169;28;20632;-75
2021/04/18 06:24:38;;;;;;;174.10;72.80;;;;;;;-144.99;62.04;52195.34;5022584;28;20726;-76
2021/04/18 06:27:05;;;;;;;177.00;73.53;;;;;;;-144.99;62.45;52126.06;5020082;28;20713;-76
2021/04/18 06:29:32;;;;;;;182.33;75.20;;;;;;;-144.99;62.34;52215.75;5012988;28;20648;-75
2021/04/18 06:31:58;;;;;;;179.87;74.33;;;;;;;-144.99;62.35;52195.34;5014969;28;20662;-74
2021/04/18 06:34:24;;;;;;;177.73;74.80;;;;;;;-144.99;62.10;52179.06;5015223;28;20648;-76
2021/04/18 06:36:51;;;;;;;186.00;75.57;;;;;;;-144.99;61.78;52170.91;5022075;28;20608;-75
2021/04/18 06:39:17;;;;;;;184.07;75.70;;;;;;;-144.99;61.59;52177.00;5032400;28;20682;-75
2021/04/18 06:41:50;;;;;;;185.83;76.23;;;;;;;-144.99;61.20;52138.28;5031537;28;21020;-73
2021/04/18 06:44:18;;;;;;;184.77;74.90;;;;;;;-144.99;60.42;52154.59;5017931;28;20598;-75
2021/04/18 06:46:45;;;;;;;187.87;76.23;;;;;;;-144.99;60.06;52142.38;5012049;28;21197;-75
2021/04/18 06:49:11;;;;;;;183.67;75.97;;;;;;;-144.99;59.96;52181.09;5012816;28;20617;-75
2021/04/18 06:51:38;;;;;;;178.03;75.27;;;;;;;-144.99;59.47;52154.59;5015916;28;20663;-74
2021/04/18 06:54:05;;;;;;;154.17;68.53;;;;;;;-144.99;59.69;52138.28;5022420;28;20641;-75
2021/04/18 06:56:31;;;;;;;164.60;71.23;;;;;;;-144.99;59.42;52166.81;5016976;28;20646;-75
2021/04/18 06:58:58;;;;;;;163.93;70.70;;;;;;;-144.99;59.13;52179.06;5013024;28;20625;-74
2021/04/18 07:01:24;;;;;;;187.40;76.23;;;;;;;-144.99;58.89;52140.31;5020146;28;20695;-74
2021/04/18 07:04:10;;;;;;;175.60;72.87;;;;;;;-144.99;58.58;52164.78;5031018;28;20621;-74
2021/04/18 07:06:38;;;;;;;183.90;75.30;;;;;;;-144.99;58.36;52209.63;5033050;28;20640;-74
2021/04/18 07:09:04;;;;;;;181.13;74.83;;;;;;;-144.99;58.24;52170.91;5020137;28;20690;-75
2021/04/18 07:11:46;;;;;;;174.13;72.70;;;;;;;-144.99;59.06;52134.22;5014118;28;20684;-75
2021/04/18 07:14:23;;;;;;;184.33;75.70;;;;;;;-144.99;58.29;52181.09;5024340;28;20644;-75
2021/04/18 07:16:50;;;;;;;163.93;72.80;;;;;;;-144.99;58.24;52152.56;5015114;28;20964;-74
2021/04/18 07:19:22;;;;;;;187.53;78.63;;;;;;;-144.99;57.98;52203.50;5014734;28;20682;-75
2021/04/18 07:21:51;;;;;;;192.77;78.30;;;;;;;-144.99;58.62;52142.38;5021597;28;21328;-75
2021/04/18 07:24:18;;;;;;;191.83;78.17;;;;;;;-144.99;58.54;52160.72;5023529;28;20628;-75
2021/04/18 07:26:44;;;;;;;193.00;78.00;;;;;;;-144.99;58.02;52179.06;5029237;28;20227;-73
2021/04/18 07:29:13;;;;;;;187.97;76.80;;;;;;;-144.99;56.90;52162.75;5019212;28;20621;-75
2021/04/18 07:31:39;;;;;;;189.10;77.20;;;;;;;-144.99;55.68;52138.28;5027349;28;20735;-77
2021/04/18 07:34:09;;;;;;;201.20;80.63;;;;;;;-144.99;54.97;52126.06;5022817;28;21004;-79
2021/04/18 07:36:38;;;;;;;192.47;79.23;;;;;;;-144.99;55.06;52230.00;5014853;28;20231;-76
2021/04/18 07:39:07;;;;;;;169.73;75.60;;;;;;;-144.99;54.79;52170.91;5015199;28;20651;-76
2021/04/18 07:41:36;;;;;;;188.27;77.67;;;;;;;-144.99;54.85;52174.97;5018555;28;20661;-77
2021/04/18 07:44:03;;;;;;;179.73;77.17;;;;;;;-144.99;54.88;52154.59;5031069;28;20641;-76
2021/04/18 07:46:30;;;;;;;173.83;75.97;;;;;;;-144.99;55.39;52156.63;5018383;28;20705;-78
2021/04/18 07:48:56;;;;;;;139.17;67.60;;;;;;;-144.99;54.98;52134.22;5041688;28;20651;-76
2021/04/18 07:51:24;;;;;;;159.80;72.70;;;;;;;-144.99;54.83;52148.47;5037497;28;20673;-76
2021/04/18 07:53:57;;;;;;;167.13;75.03;;;;;;;-144.99;54.53;52207.59;5050138;28;20620;-78
2021/04/18 07:56:27;;;;;;;162.13;75.03;;;;;;;-144.99;54.05;52134.22;5029636;28;20629;-78
2021/04/18 07:58:54;;;;;;;160.90;74.23;;;;;;;-144.99;54.25;52154.59;5029268;28;20717;-79
2021/04/18 08:01:20;;;;;;;137.93;66.88;;;;;;;-144.99;53.79;52132.19;5043548;28;20661;-77
2021/04/18 08:03:46;;;;;;;160.77;73.83;;;;;;;-144.99;53.61;52191.28;5047840;28;20232;-79
2021/04/18 08:06:13;;;;;;;167.90;75.93;;;;;;;-144.99;53.33;52183.13;5052372;28;20608;-78
2021/04/18 08:08:45;;;;;;;164.70;75.00;;;;;;;-144.99;53.50;52179.06;5036819;28;20625;-79
2021/04/18 08:11:14;;;;;;;161.93;74.57;;;;;;;-144.99;53.48;52132.19;5047661;28;20726;-77
2021/04/18 08:13:42;;;;;;;153.30;72.17;;;;;;;-144.99;53.73;52166.81;5050472;28;20636;-77
2021/04/18 08:16:09;;;;;;;161.37;74.43;;;;;;;-144.99;53.79;52134.22;5045562;28;20855;-80
2021/04/18 08:18:37;;;;;;;152.37;72.63;;;;;;;-144.99;53.27;52138.28;5031986;28;20724;-78
2021/04/18 08:21:25;;;;;;;156.97;73.47;;;;;;;-144.99;53.10;52140.31;5019261;28;20673;-77
2021/04/18 08:23:52;;;;;;;155.13;73.27;;;;;;;-144.99;52.83;52109.75;5018276;28;20826;-79
2021/04/18 08:26:20;;;;;;;166.13;75.83;;;;;;;-144.99;52.41;52138.28;5032785;28;20613;-78
2021/04/18 08:29:10;;;;;;;163.60;74.00;;;;;;;-144.99;52.43;52154.59;5035017;28;20608;-74
2021/04/18 08:31:56;;;;;;;156.53;73.50;;;;;;;-144.99;51.96;52138.28;5025903;28;20665;-77
2021/04/18 08:34:24;;;;;;;167.50;75.73;;;;;;;-144.99;51.49;52130.13;5029117;28;20640;-79
2021/04/18 08:36:52;;;;;;;174.53;77.53;;;;;;;-144.99;51.49;52170.91;5015758;28;20609;-78
2021/04/18 08:39:25;;;;;;;171.93;76.60;;;;;;;-144.99;50.94;52130.13;5016367;28;20794;-77
2021/04/18 08:41:53;;;;;;;192.87;80.53;;;;;;;-144.99;50.50;52128.09;5031475;28;20660;-79
2021/04/18 08:44:21;;;;;;;158.13;71.10;;;;;;;-144.99;50.12;52174.97;5024596;28;20798;-78
2021/04/18 08:46:49;;;;;;;164.43;75.13;;;;;;;-144.99;49.45;52105.69;5028751;28;20632;-77
2021/04/18 08:49:31;;;;;;;157.37;73.37;;;;;;;-144.99;49.48;52113.84;5024246;28;20636;-81
2021/04/18 08:51:59;;;;;;;179.87;78.80;;;;;;;-144.99;49.11;52134.22;5033813;28;20667;-79
2021/04/18 08:54:27;;;;;;;183.03;79.13;;;;;;;-144.99;48.19;52113.84;5020602;28;20636;-77
2021/04/18 08:56:56;;;;;;;131.80;67.00;;;;;;;-144.99;48.33;52113.84;5015125;28;20629;-74
2021/04/18 08:59:23;;;;;;;190.20;79.23;;;;;;;-144.99;48.28;52121.97;5024316;28;20632;-76
2021/04/18 09:02:01;;;;;;;193.83;80.13;;;;;;;-144.99;48.22;52146.44;5019996;28;20657;-77
2021/04/18 09:04:30;;;;;;;178.27;77.03;;;;;;;-144.99;47.74;52103.66;5031158;28;20651;-77
2021/04/18 09:06:57;;;;;;;187.37;78.47;;;;;;;-144.99;47.45;52109.75;5029453;28;20640;-74
2021/04/18 09:09:24;;;;;;;194.13;80.47;;;;;;;-144.99;47.18;52154.59;5028489;28;20682;-74
2021/04/18 09:11:51;;;;;;;193.10;80.67;;;;;;;-144.99;47.22;52099.56;5023546;28;20676;-75
2021/04/18 09:14:27;;;;;;;171.17;75.57;;;;;;;-144.99;46.92;52103.66;5020002;28;20633;-75
2021/04/18 09:16:53;;;;;;;107.80;60.60;;;;;;;-144.99;46.77;52138.28;5019410;28;20630;-74
2021/04/18 09:19:25;;;;;;;97.00;58.20;;;;;;;-144.99;46.54;52142.38;5028349;28;20665;-71
2021/04/18 09:22:04;;;;;;;102.57;59.67;;;;;;;-144.99;46.07;52109.75;5019328;28;20231;-73
2021/04/18 09:24:30;;;;;;;105.77;60.20;;;;;;;-144.99;46.01;52124.03;5012526;28;20218;-78
2021/04/18 09:27:00;;;;;;;90.40;57.30;;;;;;;-144.99;46.55;52121.97;5019513;28;20223;-77
2021/04/18 09:29:28;;;;;;;;;;;;;;;-144.99;46.77;52109.75;5025318;28;20251;-76
2021/04/18 09:31:58;;;;;;;97.85;59.53;;;;;;;-144.99;46.72;52097.53;5012836;28;20004;-76
2021/04/18 09:34:25;;;;;;;151.93;70.93;;;;;;;-144.99;46.59;52113.84;5014961;28;20317;-75
2021/04/18 09:36:53;;;;;;;181.13;76.93;;;;;;;-144.99;46.52;52154.59;5029516;28;20292;-76
2021/04/18 09:39:20;;;;;;;179.50;77.47;;;;;;;-144.99;46.14;52103.66;5025482;28;20822;-73
2021/04/18 09:41:47;;;;;;;177.70;76.83;;;;;;;-144.99;46.22;52097.53;5018833;28;20675;-76
2021/04/18 09:44:28;;;;;;;184.43;78.07;;;;;;;-144.99;46.01;52126.06;5033121;28;20628;-77
2021/04/18 09:46:58;;;;;;;189.80;80.10;;;;;;;-144.99;46.57;52097.53;5018995;28;21194;-73
2021/04/18 09:49:25;;;;;;;168.80;75.37;;;;;;;-144.99;46.70;52117.91;5026732;28;21138;-73
2021/04/18 09:51:57;;;;;;;188.30;80.60;;;;;;;-144.99;46.06;52097.53;5020858;28;21226;-76
2021/04/18 09:54:32;;;;;;;183.77;78.97;;;;;;;-144.99;46.12;52119.94;5019699;28;20633;-75
2021/04/18 09:57:18;;;;;;;187.27;79.83;;;;;;;-144.99;46.06;52097.53;5029458;28;20623;-75
2021/04/18 09:59:59;;;;;;;183.70;78.03;;;;;;;-144.99;45.81;52117.91;5012867;28;20628;-75
2021/04/18 10:02:26;;;;;;;185.70;77.93;;;;;;;-144.99;46.01;52130.13;5013172;28;20683;-75
2021/04/18 10:05:07;;;;;;;202.03;81.67;;;;;;;-144.99;45.97;52105.69;5015417;28;20649;-75
2021/04/18 10:07:33;;;;;;;204.87;80.73;;;;;;;-144.99;45.57;52099.56;5025295;28;20686;-75
2021/04/18 10:09:59;;;;;;;200.07;82.40;;;;;;;-144.99;44.65;52134.22;5017695;28;20664;-77
2021/04/18 10:12:27;;;;;;;188.33;79.43;;;;;;;-144.99;44.21;52028.22;5018215;28;20653;-75
2021/04/18 10:15:05;;;;;;;191.13;80.07;;;;;;;-144.99;43.61;52040.47;5014900;28;20629;-74
2021/04/18 10:17:33;;;;;;;180.90;77.97;;;;;;;-144.99;42.51;52048.63;5020321;28;21039;-75
2021/04/18 10:19:59;;;;;;;152.17;73.50;;;;;;;-144.99;41.91;52034.34;5013118;28;20652;-76
2021/04/18 10:22:26;;;;;;;160.75;75.40;;;;;;;-144.99;41.79;52020.09;5022716;28;20215;-75
2021/04/18 10:24:52;;;;;;;164.43;76.53;;;;;;;-144.99;40.83;52016.00;5032241;28;20209;-75
2021/04/18 10:27:20;;;;;;;171.20;77.57;;;;;;;-144.99;40.43;52032.31;5026932;28;20208;-73
2021/04/18 10:29:47;;;;;;;146.47;71.40;;;;;;;-144.99;39.59;51967.09;5016116;28;20202;-75
2021/04/18 10:32:14;;;;;;;167.10;75.60;;;;;;;-144.99;39.46;52020.09;5015041;28;20255;-75
2021/04/18 10:34:41;;;;;;;172.13;77.60;;;;;;;-144.99;39.58;51934.50;5019841;28;20206;-75
2021/04/18 10:37:07;;;;;;;165.57;75.67;;;;;;;-144.99;39.16;51926.34;5015945;28;20719;-75
2021/04/18 10:39:34;;;;;;;162.40;76.33;;;;;;;-144.99;39.79;51914.09;5013453;28;20252;-74
2021/04/18 10:42:00;;;;;;;150.00;73.63;;;;;;;-144.99;38.53;51934.50;5024401;28;20216;-79
2021/04/18 10:44:27;;;;;;;149.57;73.03;;;;;;;-144.99;38.21;51926.34;5016327;28;20202;-76
2021/04/18 10:46:54;;;;;;;;;;;;;;;-144.99;37.49;51893.72;5017074;28;20587;-77
2021/04/18 10:49:21;;;;;;;205.20;80.18;;;;;;;-144.99;37.36;51901.88;5014548;28;24697;-76
2021/04/18 10:51:48;;;;;;;170.20;73.80;;;;;;;-144.99;37.20;51934.50;5022103;28;20750;-74
2021/04/18 10:54:15;;;;;;;179.03;74.50;;;;;;;-144.99;36.99;51952.81;5026109;28;20493;-77
2021/04/18 10:56:42;;;;;;;153.40;73.87;;;;;;;-144.99;37.19;51895.75;5031313;28;20266;-75